Aragon, Georgia
Current Conditions -  °F | °C
As of 1:15 AM on Sunday 21 Dec 2014 (Local Time) from KPUJ Reporting Station
Haze Haze  
Wind Chill: 45°   Ceiling: 1300
Heat Index: 45°   Visibility: 4mi
Dew Point: 45°   Wind: 0mph
Humidity: 100%   Direction: NA
Pressure: 30.19"   Gusts: NA
Location:  34.05°N, 85.06°W
Report Text: KPUJ 210615Z AUTO 00000KT 4SM BR SCT003 OVC013 07/07 A3019 RMK AO2
Loading
Personal Weather Stations






























Interactive Weather Map New forecast layout! Learn more

10-Day Weather Forecast

Advertisements
Track Severe Weather on mobile